GLO7683 SUMU-SBGL
Flight info
| Callsign | GLO7683 |
|---|---|
| Flight time | 2h 6m |
| Altitude | 34000 |
| Route | AKPOD UM540 ITBEB UN857 AKNUB |
| Aircraft | B738/M-DGVW/C |
Departure
| Time | 2026-04-25 12:57 |
|---|---|
| Airport | Carrasco General Cesáreo L. Berisso International Airport (SUMU) |
Arrival
| Time | 2026-04-25 15:04 |
|---|---|
| Airport | Rio Galeão – Tom Jobim International Airport (SBGL) |
| Time | Latitude | Longitude | Altitude | Speed | Heading |
|---|---|---|---|---|---|
| 2026-04-25 12:28 | -34.83631 | -56.01792 | 92 ft | 0 kts | 148° |
| 2026-04-25 12:49 | -34.83627 | -56.01795 | 91 ft | 4 kts | 149° |
| 2026-04-25 12:50 | -34.83603 | -56.01810 | 92 ft | 4 kts | 161° |
| 2026-04-25 12:50 | -34.83576 | -56.01817 | 92 ft | 4 kts | 178° |
| 2026-04-25 12:50 | -34.83557 | -56.01816 | 93 ft | 1 kts | 190° |
| 2026-04-25 12:50 | -34.83554 | -56.01815 | 93 ft | 1 kts | 190° |
| 2026-04-25 12:52 | -34.83555 | -56.01815 | 93 ft | 0 kts | 191° |
| 2026-04-25 12:53 | -34.83565 | -56.01838 | 94 ft | 8 kts | 251° |
| 2026-04-25 12:53 | -34.83607 | -56.01947 | 93 ft | 17 kts | 235° |
| 2026-04-25 12:53 | -34.83666 | -56.02051 | 90 ft | 15 kts | 235° |
| 2026-04-25 12:53 | -34.83727 | -56.02149 | 87 ft | 14 kts | 232° |
| 2026-04-25 12:54 | -34.83795 | -56.02233 | 82 ft | 15 kts | 200° |
| 2026-04-25 12:54 | -34.83910 | -56.02248 | 84 ft | 17 kts | 189° |
| 2026-04-25 12:54 | -34.83949 | -56.02327 | 77 ft | 12 kts | 270° |
| 2026-04-25 12:54 | -34.83947 | -56.02461 | 76 ft | 21 kts | 270° |
| 2026-04-25 12:55 | -34.83953 | -56.02658 | 65 ft | 24 kts | 256° |
| 2026-04-25 12:55 | -34.83973 | -56.02768 | 71 ft | 15 kts | 291° |
| 2026-04-25 12:55 | -34.83859 | -56.02848 | 66 ft | 16 kts | 351° |
| 2026-04-25 12:55 | -34.83757 | -56.02877 | 73 ft | 14 kts | 310° |
| 2026-04-25 12:56 | -34.83776 | -56.02980 | 72 ft | 13 kts | 236° |
| 2026-04-25 12:56 | -34.83818 | -56.03050 | 71 ft | 3 kts | 239° |
| 2026-04-25 12:56 | -34.83805 | -56.03077 | 65 ft | 5 kts | 333° |
| 2026-04-25 12:56 | -34.83761 | -56.03081 | 70 ft | 13 kts | 359° |
| 2026-04-25 12:57 | -34.83400 | -56.03087 | 84 ft | 91 kts | 359° |
| 2026-04-25 12:57 | -34.82524 | -56.03098 | 104 ft | 156 kts | 359° |
| 2026-04-25 12:57 | -34.81313 | -56.03107 | 406 ft | 186 kts | 360° |
| 2026-04-25 12:57 | -34.79950 | -56.02855 | 753 ft | 218 kts | 26° |
| 2026-04-25 12:58 | -34.78693 | -56.01732 | 1476 ft | 214 kts | 43° |
| 2026-04-25 12:58 | -34.77726 | -56.00548 | 2381 ft | 181 kts | 46° |
| 2026-04-25 12:58 | -34.77003 | -55.99565 | 3099 ft | 139 kts | 46° |
| 2026-04-25 12:58 | -34.76330 | -55.98693 | 3440 ft | 156 kts | 43° |
| 2026-04-25 12:59 | -34.75541 | -55.97706 | 3903 ft | 159 kts | 45° |
| 2026-04-25 12:59 | -34.74720 | -55.96669 | 4197 ft | 188 kts | 44° |
| 2026-04-25 12:59 | -34.73734 | -55.95458 | 4418 ft | 211 kts | 44° |
| 2026-04-25 12:59 | -34.72632 | -55.94133 | 4573 ft | 234 kts | 43° |
| 2026-04-25 13:00 | -34.71403 | -55.92685 | 4754 ft | 259 kts | 43° |
| 2026-04-25 13:00 | -34.70514 | -55.91653 | 4924 ft | 273 kts | 42° |
| 2026-04-25 13:00 | -34.68624 | -55.89494 | 5794 ft | 284 kts | 42° |
| 2026-04-25 13:00 | -34.67165 | -55.87844 | 6528 ft | 288 kts | 41° |
| 2026-04-25 13:01 | -34.65676 | -55.86186 | 7260 ft | 291 kts | 41° |
| 2026-04-25 13:01 | -34.64180 | -55.84532 | 8052 ft | 292 kts | 41° |
| 2026-04-25 13:01 | -34.62668 | -55.82869 | 8800 ft | 295 kts | 40° |
| 2026-04-25 13:01 | -34.61139 | -55.81195 | 9555 ft | 298 kts | 40° |
| 2026-04-25 13:02 | -34.59592 | -55.79505 | 10261 ft | 301 kts | 40° |
| 2026-04-25 13:02 | -34.58037 | -55.77813 | 10579 ft | 300 kts | 40° |
| 2026-04-25 13:02 | -34.56478 | -55.76117 | 10664 ft | 303 kts | 40° |
| 2026-04-25 13:02 | -34.54895 | -55.74398 | 10673 ft | 307 kts | 40° |
| 2026-04-25 13:03 | -34.53270 | -55.72636 | 10775 ft | 323 kts | 40° |
| 2026-04-25 13:03 | -34.51544 | -55.70768 | 10941 ft | 343 kts | 40° |
| 2026-04-25 13:03 | -34.49723 | -55.68798 | 11276 ft | 357 kts | 40° |
| 2026-04-25 13:03 | -34.47855 | -55.66778 | 11841 ft | 362 kts | 40° |
| 2026-04-25 13:04 | -34.45965 | -55.64734 | 12485 ft | 365 kts | 40° |
| 2026-04-25 13:04 | -34.44059 | -55.62674 | 13110 ft | 370 kts | 40° |
| 2026-04-25 13:04 | -34.42127 | -55.60588 | 13685 ft | 374 kts | 40° |
| 2026-04-25 13:04 | -34.40171 | -55.58479 | 14243 ft | 379 kts | 40° |
| 2026-04-25 13:05 | -34.38191 | -55.56344 | 14797 ft | 383 kts | 40° |
| 2026-04-25 13:05 | -34.36197 | -55.54196 | 15345 ft | 387 kts | 40° |
| 2026-04-25 13:05 | -34.34176 | -55.52021 | 15882 ft | 391 kts | 39° |
| 2026-04-25 13:05 | -34.32132 | -55.49823 | 16395 ft | 395 kts | 39° |
| 2026-04-25 13:06 | -34.30064 | -55.47601 | 16916 ft | 400 kts | 39° |
| 2026-04-25 13:06 | -34.27980 | -55.45363 | 17443 ft | 404 kts | 38° |
| 2026-04-25 13:06 | -34.25864 | -55.43093 | 17961 ft | 408 kts | 38° |
| 2026-04-25 13:06 | -34.23731 | -55.40804 | 18461 ft | 412 kts | 38° |
| 2026-04-25 13:07 | -34.21575 | -55.38494 | 18881 ft | 416 kts | 38° |
| 2026-04-25 13:07 | -34.19399 | -55.36164 | 19371 ft | 419 kts | 38° |
| 2026-04-25 13:07 | -34.17211 | -55.33821 | 19858 ft | 421 kts | 38° |
| 2026-04-25 13:07 | -34.15014 | -55.31471 | 20331 ft | 424 kts | 37° |
| 2026-04-25 13:08 | -34.12796 | -55.29099 | 20792 ft | 427 kts | 37° |
| 2026-04-25 13:08 | -34.10562 | -55.26713 | 21248 ft | 430 kts | 37° |
| 2026-04-25 13:08 | -34.08313 | -55.24313 | 21686 ft | 433 kts | 37° |
| 2026-04-25 13:08 | -34.06051 | -55.21901 | 22123 ft | 436 kts | 37° |
| 2026-04-25 13:09 | -34.03775 | -55.19475 | 22554 ft | 438 kts | 37° |
| 2026-04-25 13:09 | -34.01484 | -55.17035 | 22976 ft | 441 kts | 37° |
| 2026-04-25 13:09 | -33.99221 | -55.14627 | 23392 ft | 444 kts | 37° |
| 2026-04-25 13:09 | -33.96900 | -55.12159 | 23771 ft | 447 kts | 37° |
| 2026-04-25 13:10 | -33.94561 | -55.09674 | 24120 ft | 449 kts | 37° |
| 2026-04-25 13:10 | -33.92212 | -55.07180 | 24455 ft | 452 kts | 37° |
| 2026-04-25 13:10 | -33.89849 | -55.04673 | 24772 ft | 454 kts | 37° |
| 2026-04-25 13:10 | -33.87474 | -55.02156 | 25093 ft | 457 kts | 36° |
| 2026-04-25 13:11 | -33.85188 | -54.99734 | 25391 ft | 459 kts | 36° |
| 2026-04-25 13:11 | -33.82784 | -54.97190 | 25726 ft | 461 kts | 36° |
| 2026-04-25 13:11 | -33.80377 | -54.94644 | 26032 ft | 463 kts | 36° |
| 2026-04-25 13:11 | -33.77949 | -54.92079 | 26336 ft | 466 kts | 36° |
| 2026-04-25 13:12 | -33.75508 | -54.89502 | 26626 ft | 468 kts | 36° |
| 2026-04-25 13:12 | -33.73048 | -54.86907 | 26915 ft | 471 kts | 36° |
| 2026-04-25 13:12 | -33.70586 | -54.84310 | 27194 ft | 473 kts | 36° |
| 2026-04-25 13:12 | -33.68911 | -54.82546 | 27408 ft | 474 kts | 36° |
| 2026-04-25 13:13 | -33.65618 | -54.79079 | 27759 ft | 477 kts | 36° |
| 2026-04-25 13:13 | -33.63114 | -54.76445 | 28030 ft | 479 kts | 35° |
| 2026-04-25 13:13 | -33.60596 | -54.73798 | 28268 ft | 482 kts | 35° |
| 2026-04-25 13:13 | -33.58067 | -54.71143 | 28531 ft | 484 kts | 35° |
| 2026-04-25 13:14 | -33.55534 | -54.68486 | 28758 ft | 487 kts | 34° |
| 2026-04-25 13:14 | -33.52979 | -54.65808 | 28967 ft | 489 kts | 34° |
| 2026-04-25 13:14 | -33.50410 | -54.63117 | 29213 ft | 491 kts | 34° |
| 2026-04-25 13:14 | -33.47837 | -54.60424 | 29524 ft | 491 kts | 34° |
| 2026-04-25 13:15 | -33.45262 | -54.57728 | 29907 ft | 490 kts | 34° |
| 2026-04-25 13:15 | -33.42697 | -54.55045 | 30257 ft | 489 kts | 34° |
| 2026-04-25 13:15 | -33.40143 | -54.52376 | 30527 ft | 489 kts | 33° |
| 2026-04-25 13:15 | -33.37574 | -54.49697 | 30736 ft | 490 kts | 33° |
| 2026-04-25 13:16 | -33.35003 | -54.47018 | 30976 ft | 490 kts | 32° |
| 2026-04-25 13:16 | -33.32430 | -54.44339 | 31231 ft | 490 kts | 32° |
| 2026-04-25 13:16 | -33.29858 | -54.41662 | 31501 ft | 490 kts | 32° |
| 2026-04-25 13:16 | -33.27298 | -54.39000 | 31743 ft | 490 kts | 32° |
| 2026-04-25 13:17 | -33.24715 | -54.36317 | 31968 ft | 491 kts | 32° |
| 2026-04-25 13:17 | -33.22140 | -54.33644 | 32207 ft | 491 kts | 31° |
| 2026-04-25 13:17 | -33.19563 | -54.30970 | 32467 ft | 491 kts | 31° |
| 2026-04-25 13:17 | -33.16989 | -54.28302 | 32701 ft | 491 kts | 31° |
| 2026-04-25 13:18 | -33.14405 | -54.25626 | 32924 ft | 491 kts | 31° |
| 2026-04-25 13:18 | -33.11830 | -54.22961 | 33113 ft | 491 kts | 30° |
| 2026-04-25 13:18 | -33.09243 | -54.20287 | 33344 ft | 491 kts | 30° |
| 2026-04-25 13:18 | -33.06661 | -54.17618 | 33579 ft | 491 kts | 30° |
| 2026-04-25 13:19 | -33.04076 | -54.14950 | 33787 ft | 491 kts | 30° |
| 2026-04-25 13:19 | -33.01495 | -54.12288 | 33987 ft | 492 kts | 29° |
| 2026-04-25 13:19 | -32.98922 | -54.09637 | 34198 ft | 491 kts | 29° |
| 2026-04-25 13:19 | -32.98089 | -54.08778 | 34270 ft | 491 kts | 29° |
| 2026-04-25 13:20 | -32.93800 | -54.04359 | 34633 ft | 489 kts | 29° |
| 2026-04-25 13:20 | -32.91191 | -54.01676 | 34752 ft | 490 kts | 28° |
| 2026-04-25 13:20 | -32.86139 | -53.96497 | 34888 ft | 495 kts | 27° |
| 2026-04-25 13:21 | -32.83497 | -53.93789 | 35031 ft | 495 kts | 27° |
| 2026-04-25 13:21 | -32.80878 | -53.91105 | 35057 ft | 498 kts | 27° |
| 2026-04-25 13:21 | -32.75601 | -53.85707 | 35081 ft | 503 kts | 27° |
| 2026-04-25 13:22 | -32.70260 | -53.80249 | 35073 ft | 509 kts | 28° |
| 2026-04-25 13:23 | -32.62202 | -53.72024 | 35060 ft | 514 kts | 27° |
| 2026-04-25 13:23 | -32.56778 | -53.66498 | 35013 ft | 515 kts | 27° |
| 2026-04-25 13:24 | -32.51338 | -53.60967 | 35061 ft | 516 kts | 27° |
| 2026-04-25 13:24 | -32.45886 | -53.55430 | 35071 ft | 517 kts | 27° |
| 2026-04-25 13:25 | -32.41387 | -53.50648 | 35064 ft | 521 kts | 29° |
| 2026-04-25 13:25 | -32.36059 | -53.44806 | 35062 ft | 522 kts | 29° |
| 2026-04-25 13:26 | -32.30772 | -53.39025 | 35064 ft | 520 kts | 29° |
| 2026-04-25 13:26 | -32.25443 | -53.33253 | 35065 ft | 519 kts | 29° |
| 2026-04-25 13:27 | -32.20114 | -53.27511 | 35058 ft | 518 kts | 28° |
| 2026-04-25 13:27 | -32.14787 | -53.21784 | 35052 ft | 518 kts | 28° |
| 2026-04-25 13:28 | -32.09461 | -53.16064 | 35062 ft | 518 kts | 28° |
| 2026-04-25 13:28 | -32.04121 | -53.10337 | 35077 ft | 519 kts | 28° |
| 2026-04-25 13:29 | -31.98801 | -53.04639 | 35077 ft | 519 kts | 28° |
| 2026-04-25 13:29 | -31.93558 | -52.99034 | 35050 ft | 520 kts | 28° |
| 2026-04-25 13:30 | -31.85521 | -52.90455 | 35068 ft | 520 kts | 28° |
| 2026-04-25 13:31 | -31.77453 | -52.81871 | 35066 ft | 523 kts | 28° |
| 2026-04-25 13:31 | -31.72037 | -52.76118 | 35039 ft | 525 kts | 28° |
| 2026-04-25 13:32 | -31.66607 | -52.70357 | 35058 ft | 527 kts | 28° |
| 2026-04-25 13:32 | -31.61158 | -52.64585 | 35069 ft | 528 kts | 28° |
| 2026-04-25 13:33 | -31.55705 | -52.58819 | 35022 ft | 529 kts | 28° |
| 2026-04-25 13:33 | -31.50234 | -52.53041 | 35053 ft | 529 kts | 28° |
| 2026-04-25 13:34 | -31.44772 | -52.47278 | 35059 ft | 529 kts | 28° |
| 2026-04-25 13:34 | -31.39287 | -52.41498 | 35058 ft | 530 kts | 28° |
| 2026-04-25 13:35 | -31.33801 | -52.35725 | 35057 ft | 530 kts | 28° |
| 2026-04-25 13:35 | -31.28344 | -52.29993 | 35055 ft | 531 kts | 28° |
| 2026-04-25 13:36 | -31.22851 | -52.24232 | 35044 ft | 530 kts | 28° |
| 2026-04-25 13:36 | -31.17362 | -52.18485 | 35043 ft | 530 kts | 29° |
| 2026-04-25 13:37 | -31.11855 | -52.12729 | 35059 ft | 532 kts | 29° |
| 2026-04-25 13:37 | -31.06333 | -52.06970 | 35052 ft | 534 kts | 29° |
| 2026-04-25 13:38 | -31.00788 | -52.01194 | 35034 ft | 536 kts | 29° |
| 2026-04-25 13:38 | -30.95349 | -51.95536 | 35044 ft | 537 kts | 29° |
| 2026-04-25 13:39 | -30.89761 | -51.89730 | 35044 ft | 539 kts | 29° |
| 2026-04-25 13:39 | -30.84164 | -51.83926 | 35030 ft | 539 kts | 29° |
| 2026-04-25 13:40 | -30.78554 | -51.78118 | 35021 ft | 540 kts | 30° |
| 2026-04-25 13:40 | -30.72929 | -51.72304 | 35033 ft | 541 kts | 30° |
| 2026-04-25 13:41 | -30.67298 | -51.66493 | 35041 ft | 542 kts | 30° |
| 2026-04-25 13:41 | -30.61665 | -51.60689 | 35037 ft | 542 kts | 30° |
| 2026-04-25 13:42 | -30.56031 | -51.54891 | 35021 ft | 541 kts | 30° |
| 2026-04-25 13:42 | -30.50379 | -51.49131 | 34995 ft | 538 kts | 30° |
| 2026-04-25 13:43 | -30.44709 | -51.43486 | 35015 ft | 536 kts | 29° |
| 2026-04-25 13:43 | -30.39037 | -51.37862 | 35013 ft | 536 kts | 29° |
| 2026-04-25 13:44 | -30.33382 | -51.32242 | 35015 ft | 536 kts | 29° |
| 2026-04-25 13:44 | -30.27729 | -51.26621 | 35022 ft | 535 kts | 29° |
| 2026-04-25 13:45 | -30.22081 | -51.21014 | 35018 ft | 535 kts | 29° |
| 2026-04-25 13:45 | -30.16437 | -51.15421 | 34993 ft | 534 kts | 30° |
| 2026-04-25 13:46 | -30.10796 | -51.09840 | 34991 ft | 533 kts | 30° |
| 2026-04-25 13:46 | -30.05163 | -51.04275 | 34996 ft | 533 kts | 30° |
| 2026-04-25 13:47 | -29.99703 | -50.98889 | 34999 ft | 532 kts | 30° |
| 2026-04-25 13:47 | -29.94080 | -50.93349 | 35004 ft | 532 kts | 30° |
| 2026-04-25 13:48 | -29.88450 | -50.87814 | 35015 ft | 531 kts | 29° |
| 2026-04-25 13:48 | -29.82686 | -50.82586 | 35018 ft | 525 kts | 25° |
| 2026-04-25 13:49 | -29.76812 | -50.77575 | 35035 ft | 525 kts | 25° |
| 2026-04-25 13:49 | -29.70991 | -50.72574 | 35034 ft | 527 kts | 26° |
| 2026-04-25 13:50 | -29.65140 | -50.67492 | 35045 ft | 527 kts | 26° |
| 2026-04-25 13:50 | -29.59280 | -50.62398 | 35033 ft | 527 kts | 25° |
| 2026-04-25 13:51 | -29.53428 | -50.57334 | 35025 ft | 529 kts | 27° |
| 2026-04-25 13:51 | -29.50656 | -50.54499 | 35025 ft | 540 kts | 36° |
| 2026-04-25 13:51 | -29.48054 | -50.51381 | 35058 ft | 541 kts | 38° |
| 2026-04-25 13:52 | -29.42933 | -50.45028 | 35059 ft | 542 kts | 38° |
| 2026-04-25 13:52 | -29.37801 | -50.38701 | 35050 ft | 542 kts | 38° |
| 2026-04-25 13:53 | -29.32624 | -50.32423 | 35053 ft | 541 kts | 37° |
| 2026-04-25 13:53 | -29.27441 | -50.26180 | 35061 ft | 541 kts | 37° |
| 2026-04-25 13:54 | -29.22247 | -50.19931 | 35055 ft | 541 kts | 37° |
| 2026-04-25 13:54 | -29.17091 | -50.13731 | 35046 ft | 541 kts | 37° |
| 2026-04-25 13:55 | -29.11907 | -50.07503 | 35035 ft | 540 kts | 38° |
| 2026-04-25 13:55 | -29.06728 | -50.01291 | 35042 ft | 539 kts | 38° |
| 2026-04-25 13:56 | -29.01686 | -49.95255 | 35044 ft | 539 kts | 38° |
| 2026-04-25 13:56 | -28.96544 | -49.89103 | 35046 ft | 537 kts | 37° |
| 2026-04-25 13:57 | -28.91383 | -49.82944 | 35029 ft | 537 kts | 37° |
| 2026-04-25 13:57 | -28.86275 | -49.76713 | 35041 ft | 539 kts | 39° |
| 2026-04-25 13:58 | -28.81260 | -49.70341 | 35038 ft | 540 kts | 40° |
| 2026-04-25 13:58 | -28.76250 | -49.63976 | 35035 ft | 540 kts | 39° |
| 2026-04-25 13:59 | -28.71211 | -49.57631 | 35034 ft | 539 kts | 40° |
| 2026-04-25 13:59 | -28.66161 | -49.51301 | 35024 ft | 540 kts | 40° |
| 2026-04-25 14:00 | -28.61111 | -49.44981 | 35031 ft | 540 kts | 40° |
| 2026-04-25 14:00 | -28.56049 | -49.38649 | 35032 ft | 541 kts | 40° |
| 2026-04-25 14:01 | -28.50977 | -49.32314 | 35032 ft | 542 kts | 40° |
| 2026-04-25 14:01 | -28.45910 | -49.25995 | 35028 ft | 541 kts | 40° |
| 2026-04-25 14:02 | -28.40829 | -49.19675 | 35027 ft | 541 kts | 40° |
| 2026-04-25 14:02 | -28.35760 | -49.13377 | 35032 ft | 540 kts | 40° |
| 2026-04-25 14:03 | -28.30687 | -49.07080 | 35007 ft | 538 kts | 40° |
| 2026-04-25 14:03 | -28.25689 | -49.00865 | 35018 ft | 536 kts | 40° |
| 2026-04-25 14:04 | -28.20812 | -48.94730 | 35026 ft | 534 kts | 40° |
| 2026-04-25 14:04 | -28.15835 | -48.88489 | 35037 ft | 533 kts | 40° |
| 2026-04-25 14:05 | -28.10859 | -48.82268 | 35024 ft | 532 kts | 40° |
| 2026-04-25 14:05 | -28.05890 | -48.76062 | 35033 ft | 531 kts | 40° |
| 2026-04-25 14:06 | -28.00930 | -48.69873 | 35041 ft | 530 kts | 40° |
| 2026-04-25 14:06 | -27.95976 | -48.63702 | 35025 ft | 530 kts | 40° |
| 2026-04-25 14:07 | -27.91012 | -48.57526 | 35010 ft | 529 kts | 41° |
| 2026-04-25 14:07 | -27.86063 | -48.51376 | 35011 ft | 529 kts | 41° |
| 2026-04-25 14:08 | -27.81114 | -48.45236 | 35024 ft | 528 kts | 41° |
| 2026-04-25 14:08 | -27.76177 | -48.39121 | 35021 ft | 527 kts | 41° |
| 2026-04-25 14:09 | -27.71236 | -48.33007 | 35024 ft | 527 kts | 41° |
| 2026-04-25 14:09 | -27.66329 | -48.26949 | 35024 ft | 526 kts | 41° |
| 2026-04-25 14:10 | -27.61389 | -48.20859 | 35019 ft | 526 kts | 41° |
| 2026-04-25 14:10 | -27.56451 | -48.14779 | 35030 ft | 526 kts | 41° |
| 2026-04-25 14:11 | -27.51505 | -48.08696 | 35010 ft | 526 kts | 41° |
| 2026-04-25 14:11 | -27.46565 | -48.02628 | 35023 ft | 526 kts | 41° |
| 2026-04-25 14:12 | -27.41738 | -47.96706 | 35030 ft | 526 kts | 41° |
| 2026-04-25 14:12 | -27.36780 | -47.90642 | 35030 ft | 526 kts | 41° |
| 2026-04-25 14:13 | -27.31799 | -47.84608 | 35025 ft | 527 kts | 41° |
| 2026-04-25 14:13 | -27.26809 | -47.78578 | 35032 ft | 527 kts | 41° |
| 2026-04-25 14:14 | -27.21812 | -47.72539 | 35034 ft | 528 kts | 41° |
| 2026-04-25 14:14 | -27.17656 | -47.67520 | 35030 ft | 528 kts | 41° |
| 2026-04-25 14:15 | -27.12650 | -47.61481 | 35036 ft | 528 kts | 41° |
| 2026-04-25 14:15 | -27.07649 | -47.55457 | 35030 ft | 527 kts | 41° |
| 2026-04-25 14:16 | -27.02655 | -47.49450 | 35033 ft | 526 kts | 41° |
| 2026-04-25 14:16 | -26.97670 | -47.43462 | 35036 ft | 526 kts | 41° |
| 2026-04-25 14:17 | -26.92674 | -47.37469 | 35038 ft | 525 kts | 41° |
| 2026-04-25 14:17 | -26.87690 | -47.31499 | 35039 ft | 525 kts | 41° |
| 2026-04-25 14:18 | -26.82698 | -47.25534 | 35038 ft | 525 kts | 41° |
| 2026-04-25 14:18 | -26.77705 | -47.19574 | 35041 ft | 525 kts | 41° |
| 2026-04-25 14:19 | -26.72711 | -47.13619 | 35039 ft | 524 kts | 41° |
| 2026-04-25 14:19 | -26.67714 | -47.07684 | 35035 ft | 524 kts | 41° |
| 2026-04-25 14:20 | -26.62714 | -47.01759 | 35044 ft | 523 kts | 41° |
| 2026-04-25 14:20 | -26.57826 | -46.95979 | 35040 ft | 523 kts | 41° |
| 2026-04-25 14:21 | -26.52822 | -46.90099 | 35043 ft | 522 kts | 41° |
| 2026-04-25 14:21 | -26.47812 | -46.84219 | 35044 ft | 522 kts | 41° |
| 2026-04-25 14:22 | -26.42805 | -46.78343 | 35041 ft | 522 kts | 41° |
| 2026-04-25 14:22 | -26.37789 | -46.72467 | 35044 ft | 522 kts | 41° |
| 2026-04-25 14:23 | -26.32776 | -46.66607 | 35046 ft | 523 kts | 41° |
| 2026-04-25 14:23 | -26.27757 | -46.60746 | 35041 ft | 522 kts | 41° |
| 2026-04-25 14:24 | -26.22737 | -46.54890 | 35041 ft | 522 kts | 42° |
| 2026-04-25 14:24 | -26.17719 | -46.49043 | 35047 ft | 522 kts | 42° |
| 2026-04-25 14:25 | -26.12699 | -46.43202 | 35046 ft | 522 kts | 41° |
| 2026-04-25 14:25 | -26.07675 | -46.37364 | 35046 ft | 522 kts | 41° |
| 2026-04-25 14:26 | -26.02647 | -46.31529 | 35044 ft | 522 kts | 42° |
| 2026-04-25 14:26 | -25.97623 | -46.25706 | 35050 ft | 522 kts | 42° |
| 2026-04-25 14:27 | -25.92633 | -46.19930 | 35050 ft | 522 kts | 42° |
| 2026-04-25 14:27 | -25.87594 | -46.14105 | 35048 ft | 522 kts | 42° |
| 2026-04-25 14:28 | -25.82561 | -46.08294 | 35049 ft | 522 kts | 42° |
| 2026-04-25 14:28 | -25.77522 | -46.02484 | 35052 ft | 522 kts | 42° |
| 2026-04-25 14:29 | -25.72599 | -45.96814 | 35046 ft | 522 kts | 42° |
| 2026-04-25 14:29 | -25.67561 | -45.91018 | 35050 ft | 522 kts | 42° |
| 2026-04-25 14:30 | -25.62516 | -45.85227 | 35056 ft | 522 kts | 42° |
| 2026-04-25 14:30 | -25.54939 | -45.76549 | 35046 ft | 522 kts | 42° |
| 2026-04-25 14:31 | -25.49890 | -45.70773 | 35048 ft | 522 kts | 42° |
| 2026-04-25 14:31 | -25.44849 | -45.65011 | 35062 ft | 521 kts | 42° |
| 2026-04-25 14:32 | -25.39798 | -45.59246 | 35046 ft | 521 kts | 42° |
| 2026-04-25 14:32 | -25.34756 | -45.53498 | 35043 ft | 521 kts | 42° |
| 2026-04-25 14:33 | -25.29713 | -45.47758 | 35053 ft | 520 kts | 42° |
| 2026-04-25 14:33 | -25.24675 | -45.42029 | 35050 ft | 520 kts | 42° |
| 2026-04-25 14:34 | -25.19628 | -45.36298 | 35048 ft | 520 kts | 42° |
| 2026-04-25 14:34 | -25.14581 | -45.30574 | 35045 ft | 520 kts | 42° |
| 2026-04-25 14:35 | -25.09568 | -45.24896 | 35055 ft | 520 kts | 42° |
| 2026-04-25 14:35 | -25.04519 | -45.19184 | 35059 ft | 519 kts | 42° |
| 2026-04-25 14:36 | -24.99498 | -45.13511 | 35050 ft | 519 kts | 42° |
| 2026-04-25 14:36 | -24.94460 | -45.07826 | 35056 ft | 519 kts | 42° |
| 2026-04-25 14:37 | -24.89415 | -45.02140 | 35062 ft | 518 kts | 42° |
| 2026-04-25 14:37 | -24.84570 | -44.96684 | 35031 ft | 508 kts | 42° |
| 2026-04-25 14:38 | -24.82131 | -44.93936 | 35038 ft | 496 kts | 42° |
| 2026-04-25 14:38 | -24.79743 | -44.91248 | 35032 ft | 485 kts | 42° |
| 2026-04-25 14:38 | -24.77418 | -44.88634 | 35029 ft | 471 kts | 42° |
| 2026-04-25 14:38 | -24.75166 | -44.86102 | 35033 ft | 456 kts | 42° |
| 2026-04-25 14:39 | -24.72974 | -44.83641 | 35027 ft | 445 kts | 41° |
| 2026-04-25 14:39 | -24.70805 | -44.81213 | 35050 ft | 446 kts | 41° |
| 2026-04-25 14:39 | -24.66415 | -44.76307 | 35073 ft | 456 kts | 42° |
| 2026-04-25 14:40 | -24.61916 | -44.71274 | 35071 ft | 464 kts | 42° |
| 2026-04-25 14:40 | -24.57377 | -44.66194 | 35065 ft | 467 kts | 42° |
| 2026-04-25 14:41 | -24.52821 | -44.61101 | 35063 ft | 466 kts | 42° |
| 2026-04-25 14:41 | -24.48221 | -44.56203 | 35043 ft | 453 kts | 33° |
| 2026-04-25 14:42 | -24.43868 | -44.53074 | 35043 ft | 450 kts | 19° |
| 2026-04-25 14:42 | -24.39932 | -44.51473 | 34715 ft | 460 kts | 13° |
| 2026-04-25 14:42 | -24.36816 | -44.50369 | 34192 ft | 479 kts | 12° |
| 2026-04-25 14:43 | -24.33582 | -44.49240 | 33656 ft | 496 kts | 12° |
| 2026-04-25 14:43 | -24.30285 | -44.48077 | 33057 ft | 499 kts | 13° |
| 2026-04-25 14:43 | -24.27023 | -44.46904 | 32502 ft | 500 kts | 14° |
| 2026-04-25 14:43 | -24.23673 | -44.45685 | 31950 ft | 501 kts | 14° |
| 2026-04-25 14:44 | -24.20418 | -44.44493 | 31400 ft | 501 kts | 14° |
| 2026-04-25 14:44 | -24.17111 | -44.43278 | 30863 ft | 501 kts | 14° |
| 2026-04-25 14:44 | -24.13812 | -44.42065 | 30344 ft | 501 kts | 14° |
| 2026-04-25 14:44 | -24.10511 | -44.40853 | 29757 ft | 501 kts | 14° |
| 2026-04-25 14:45 | -24.07213 | -44.39642 | 29161 ft | 500 kts | 14° |
| 2026-04-25 14:45 | -24.03906 | -44.38429 | 28573 ft | 500 kts | 14° |
| 2026-04-25 14:45 | -24.00610 | -44.37222 | 28000 ft | 500 kts | 14° |
| 2026-04-25 14:45 | -23.97333 | -44.36022 | 27440 ft | 500 kts | 14° |
| 2026-04-25 14:46 | -23.94030 | -44.34814 | 26887 ft | 500 kts | 14° |
| 2026-04-25 14:46 | -23.90726 | -44.33606 | 26331 ft | 501 kts | 15° |
| 2026-04-25 14:46 | -23.87423 | -44.32400 | 25800 ft | 501 kts | 15° |
| 2026-04-25 14:46 | -23.84118 | -44.31193 | 25274 ft | 501 kts | 15° |
| 2026-04-25 14:47 | -23.80821 | -44.29989 | 24760 ft | 499 kts | 15° |
| 2026-04-25 14:47 | -23.78642 | -44.29194 | 24419 ft | 497 kts | 15° |
| 2026-04-25 14:47 | -23.74307 | -44.27610 | 23748 ft | 486 kts | 15° |
| 2026-04-25 14:47 | -23.71122 | -44.26447 | 23167 ft | 479 kts | 15° |
| 2026-04-25 14:48 | -23.67984 | -44.25304 | 22585 ft | 474 kts | 15° |
| 2026-04-25 14:48 | -23.64863 | -44.24168 | 22011 ft | 470 kts | 15° |
| 2026-04-25 14:48 | -23.61771 | -44.23043 | 21449 ft | 466 kts | 15° |
| 2026-04-25 14:48 | -23.58706 | -44.21929 | 20901 ft | 462 kts | 15° |
| 2026-04-25 14:49 | -23.55670 | -44.20826 | 20353 ft | 459 kts | 15° |
| 2026-04-25 14:49 | -23.52647 | -44.19728 | 19823 ft | 455 kts | 15° |
| 2026-04-25 14:49 | -23.49654 | -44.18641 | 19301 ft | 452 kts | 16° |
| 2026-04-25 14:49 | -23.46682 | -44.17563 | 18785 ft | 448 kts | 16° |
| 2026-04-25 14:50 | -23.43740 | -44.16495 | 18270 ft | 444 kts | 16° |
| 2026-04-25 14:50 | -23.40819 | -44.15436 | 17682 ft | 441 kts | 16° |
| 2026-04-25 14:50 | -23.37923 | -44.14386 | 17108 ft | 437 kts | 16° |
| 2026-04-25 14:50 | -23.35053 | -44.13346 | 16542 ft | 433 kts | 16° |
| 2026-04-25 14:51 | -23.32206 | -44.12315 | 15988 ft | 429 kts | 17° |
| 2026-04-25 14:51 | -23.29426 | -44.11309 | 15450 ft | 425 kts | 17° |
| 2026-04-25 14:51 | -23.26630 | -44.10297 | 14910 ft | 422 kts | 17° |
| 2026-04-25 14:51 | -23.23855 | -44.09294 | 14392 ft | 419 kts | 17° |
| 2026-04-25 14:52 | -23.21101 | -44.08299 | 13879 ft | 416 kts | 17° |
| 2026-04-25 14:52 | -23.18362 | -44.07309 | 13298 ft | 413 kts | 17° |
| 2026-04-25 14:52 | -23.15647 | -44.06328 | 12724 ft | 410 kts | 17° |
| 2026-04-25 14:52 | -23.13859 | -44.05683 | 12371 ft | 407 kts | 17° |
| 2026-04-25 14:53 | -23.10290 | -44.04394 | 12138 ft | 405 kts | 17° |
| 2026-04-25 14:53 | -23.07624 | -44.03432 | 12071 ft | 403 kts | 18° |
| 2026-04-25 14:53 | -23.04973 | -44.02476 | 12067 ft | 401 kts | 18° |
| 2026-04-25 14:53 | -23.02315 | -44.01517 | 12064 ft | 402 kts | 18° |
| 2026-04-25 14:54 | -22.99671 | -44.00565 | 12059 ft | 402 kts | 18° |
| 2026-04-25 14:54 | -22.97195 | -43.99673 | 12061 ft | 402 kts | 18° |
| 2026-04-25 14:54 | -22.94594 | -43.98568 | 12046 ft | 402 kts | 28° |
| 2026-04-25 14:54 | -22.92428 | -43.96664 | 12065 ft | 403 kts | 49° |
| 2026-04-25 14:55 | -22.90931 | -43.94109 | 12067 ft | 404 kts | 65° |
| 2026-04-25 14:55 | -22.89756 | -43.91337 | 12063 ft | 407 kts | 65° |
| 2026-04-25 14:55 | -22.88559 | -43.88555 | 12062 ft | 407 kts | 64° |
| 2026-04-25 14:55 | -22.87353 | -43.85791 | 12045 ft | 401 kts | 64° |
| 2026-04-25 14:56 | -22.86364 | -43.83553 | 12035 ft | 387 kts | 64° |
| 2026-04-25 14:56 | -22.85230 | -43.81004 | 11992 ft | 364 kts | 64° |
| 2026-04-25 14:56 | -22.84147 | -43.78579 | 11631 ft | 352 kts | 64° |
| 2026-04-25 14:56 | -22.83111 | -43.76263 | 11113 ft | 347 kts | 64° |
| 2026-04-25 14:57 | -22.82069 | -43.73933 | 10667 ft | 340 kts | 64° |
| 2026-04-25 14:57 | -22.81061 | -43.71641 | 10231 ft | 334 kts | 67° |
| 2026-04-25 14:57 | -22.80382 | -43.69258 | 9712 ft | 330 kts | 76° |
| 2026-04-25 14:57 | -22.79878 | -43.66841 | 9107 ft | 329 kts | 77° |
| 2026-04-25 14:58 | -22.79363 | -43.64428 | 8518 ft | 327 kts | 76° |
| 2026-04-25 14:58 | -22.78831 | -43.62042 | 7932 ft | 326 kts | 76° |
| 2026-04-25 14:58 | -22.78283 | -43.59657 | 7364 ft | 325 kts | 75° |
| 2026-04-25 14:58 | -22.77731 | -43.57288 | 6803 ft | 324 kts | 75° |
| 2026-04-25 14:59 | -22.77157 | -43.54933 | 6217 ft | 323 kts | 71° |
| 2026-04-25 14:59 | -22.76329 | -43.52681 | 5642 ft | 320 kts | 64° |
| 2026-04-25 14:59 | -22.75409 | -43.50530 | 5078 ft | 318 kts | 64° |
| 2026-04-25 14:59 | -22.74486 | -43.48357 | 4486 ft | 316 kts | 64° |
| 2026-04-25 15:00 | -22.73595 | -43.46193 | 3899 ft | 313 kts | 65° |
| 2026-04-25 15:00 | -22.72731 | -43.44057 | 3506 ft | 305 kts | 65° |
| 2026-04-25 15:00 | -22.71940 | -43.41994 | 3366 ft | 289 kts | 73° |
| 2026-04-25 15:00 | -22.71917 | -43.39919 | 3316 ft | 271 kts | 109° |
| 2026-04-25 15:01 | -22.72915 | -43.38283 | 3319 ft | 252 kts | 133° |
| 2026-04-25 15:01 | -22.74047 | -43.36940 | 2987 ft | 249 kts | 130° |
| 2026-04-25 15:01 | -22.75104 | -43.35585 | 2754 ft | 235 kts | 128° |
| 2026-04-25 15:01 | -22.76085 | -43.34294 | 2258 ft | 228 kts | 127° |
| 2026-04-25 15:02 | -22.77020 | -43.32948 | 1784 ft | 219 kts | 124° |
| 2026-04-25 15:02 | -22.77918 | -43.31634 | 1272 ft | 216 kts | 128° |
| 2026-04-25 15:02 | -22.78812 | -43.30367 | 965 ft | 204 kts | 123° |
| 2026-04-25 15:02 | -22.79489 | -43.29175 | 665 ft | 197 kts | 120° |
| 2026-04-25 15:03 | -22.80154 | -43.28006 | 417 ft | 186 kts | 123° |
| 2026-04-25 15:03 | -22.80835 | -43.26956 | 208 ft | 175 kts | 125° |
| 2026-04-25 15:03 | -22.81489 | -43.25986 | 53 ft | 160 kts | 126° |
| 2026-04-25 15:03 | -22.82065 | -43.25126 | 24 ft | 125 kts | 125° |
| 2026-04-25 15:04 | -22.82289 | -43.24790 | 19 ft | 47 kts | 124° |
| 2026-04-25 15:04 | -22.82358 | -43.24586 | 19 ft | 15 kts | 98° |
| 2026-04-25 15:04 | -22.82363 | -43.24536 | 18 ft | 8 kts | 97° |
| 2026-04-25 15:04 | -22.82369 | -43.24477 | 20 ft | 8 kts | 94° |
| 2026-04-25 15:05 | -22.82344 | -43.24430 | 17 ft | 8 kts | 40° |
| 2026-04-25 15:05 | -22.82300 | -43.24395 | 17 ft | 9 kts | 36° |
| 2026-04-25 15:05 | -22.82235 | -43.24345 | 20 ft | 14 kts | 35° |
| 2026-04-25 15:06 | -22.82049 | -43.24422 | 20 ft | 23 kts | 304° |
| 2026-04-25 15:06 | -22.81961 | -43.24553 | 20 ft | 22 kts | 306° |
| 2026-04-25 15:06 | -22.81867 | -43.24593 | 20 ft | 13 kts | 19° |
| 2026-04-25 15:06 | -22.81809 | -43.24546 | 20 ft | 11 kts | 43° |
| 2026-04-25 15:07 | -22.81758 | -43.24493 | 22 ft | 10 kts | 44° |
| 2026-04-25 15:07 | -22.81709 | -43.24442 | 21 ft | 10 kts | 44° |
| 2026-04-25 15:07 | -22.81701 | -43.24382 | 21 ft | 9 kts | 122° |
| 2026-04-25 15:07 | -22.81724 | -43.24350 | 21 ft | 0 kts | 128° |